CheckWX is a tool to help pilots better visualize weather data.  It is not intended as a substitute for an official pre-flight weather briefing.

21:39:09 UTC

DTTF TAF
Gafsa Ksar International Airport
Gafsa, Tunisia
TAF DTTF 051800Z 0519/0604 23004KT CAVOK BECMG 0519/0521 VRB03KT 9999 FEW030

Dec-5@
19:00 UTC

Dec-5 @ 19:00 UTC

Dec-6@
04:00 UTC

Dec-6 @ 04:00 UTC

TAF DTTF 051800Z 0519/0604 23004KT CAVOK
Wind
  • 230° at 4 KTS
Conditions
No significant weather
Cloud Levels
  • No significant clouds

Dec-5@
19:00 UTC

Dec-5 @ 19:00 UTC

Dec-6@
04:00 UTC

Dec-6 @ 04:00 UTC

BECMG 0519/0521 VRB03KT 9999 FEW030

Becoming

Becoming Conditions expected by Thu, Dec 5, 2019 @ 21:00 UTC

Wind
  • Variable at 3 KTS
Conditions
No significant weather
Cloud Levels
  • Few at 3,000' AGL